Aérodrome :
LOGIN :

S'inscrire | Disclaimer

   EN    FR    IT 

 










Légende :    VFR   VFR Marginal   IFR   IFR Intensif   IFR Très Intensif
Visi : 
Plafond : 
>= 8 km
>= 3000ft
5 à 8 km
1000 à 3000 ft
1500m à 5 km
500 à 1000 ft
800 à 1500m
200 à 500 ft
< 800m
< 200 ft
Symboles :   Orages  Brouillard  Fortes neiges  Fortes précipitations  Vent > 20 kt
SIGMETs :   Divers  Orages  Givrage  Turbulence  Onde Orograph.  Cendres Volcan.







- Altitude de l'aérodrome : 1276 ft
- Code IATA : STR


EDDS - Stuttgart

DERNIER METAR :
  • 230850Z 23003KT 160V300 9999 -RA FEW007 BKN020 14/13 Q1017 RERA NOSIG

METARs EXPIRÉS :
  • 230820Z VRB03KT 9999 -RA FEW007 BKN035 14/13 Q1017 RERA TEMPO RA
  • 230750Z 22003KT 150V300 9999 -RA FEW008 SCT030 BKN035 14/12 Q1017 TEMPO RA
  • 230720Z 22003KT 160V280 9999 -RA FEW008 SCT026 14/12 Q1016 TEMPO RA
  • 230650Z 22003KT 150V300 9999 -RA FEW008 SCT045 13/12 Q1016 TEMPO RA
  • 230620Z 21003KT 130V260 9999 -RA FEW008 SCT014 BKN040 13/12 Q1016 RERA TEMPO BKN014
  • 230550Z VRB02KT 8000 +RA FEW008 SCT014 BKN020 13/12 Q1016 TEMPO RA BKN014

TAF TAF EDDS
Valide du 23 à 06h jusqu'au 24 à 06h UTC


230500Z 2306/2406 25006KT 9999 BKN035
TEMPO 2306/2311 4500 RA BKN014
BECMG 2316/2319 VRB03KT
PROB30
TEMPO 2400/2406 1200 BCFG
Pas de NOTAMs connus pour ce terrain.



MET'MAP, la Météo Aéronautique d'un coup d'oeil ! - Copyright ORBIFLY Décembre 2007 - Disclaimer

ORBIFLY MET'MAP TEAM :

Programmation & Développement : Alexandra Zaïnal
Conception & Développement : Baudouin d'Aumeries
Co-Programmation & Développement : Marc-Olivier Méhu
Soutien technique & logistique : Manuel Goepfert

Contact : metmap@orbifly.com




SOURCES & CREDITS :

   NOAA